Time;durP1;ratioP1;P1;durP2;ratioP2;P2;SDS_P1;SDS_P2;PMS_P1;PMS_P2;Temp;Humidity;BMP_temperature;BMP_pressure;BME280_temperature;BME280_humidity;BME280_pressure;Samples;Min_cycle;Max_cycle;Signal;HPM_P1;HPM_P2
2023/01/27 00:01:56;;;;;;;28.52;12.98;;;4.60;99.90;;;;;;5070741;28;20044;-65
2023/01/27 00:04:22;;;;;;;24.58;12.32;;;4.60;99.90;;;;;;5062855;28;20099;-66
2023/01/27 00:06:47;;;;;;;27.25;13.43;;;4.60;99.90;;;;;;5065599;28;20524;-66
2023/01/27 00:09:13;;;;;;;29.08;13.00;;;4.60;99.90;;;;;;5061954;28;20040;-66
2023/01/27 00:14:23;;;;;;;27.73;13.35;;;4.50;99.90;;;;;;5058678;28;20055;-65
2023/01/27 00:16:49;;;;;;;31.67;14.52;;;4.60;99.90;;;;;;5063027;28;20040;-66
2023/01/27 00:19:18;;;;;;;33.95;15.40;;;4.60;99.90;;;;;;5063111;28;20072;-66
2023/01/27 00:24:37;;;;;;;27.75;11.95;;;4.60;99.90;;;;;;5058658;28;20067;-65
2023/01/27 00:27:08;;;;;;;32.28;15.20;;;4.60;99.90;;;;;;5068500;28;20040;-66
2023/01/27 00:29:38;;;;;;;32.57;15.33;;;4.60;99.90;;;;;;5063391;28;20041;-66
2023/01/27 00:34:48;;;;;;;34.47;17.58;;;4.60;99.90;;;;;;5055959;28;20051;-66
2023/01/27 00:37:13;;;;;;;35.13;16.77;;;4.60;99.90;;;;;;5054490;28;20055;-65
2023/01/27 00:39:39;;;;;;;33.67;17.45;;;4.60;99.90;;;;;;5050601;28;20522;-65
2023/01/27 00:42:05;;;;;;;34.70;17.40;;;4.60;99.90;;;;;;5054760;28;20064;-66
2023/01/27 00:44:31;;;;;;;31.70;16.60;;;4.60;99.90;;;;;;5054170;28;20169;-66
2023/01/27 00:46:56;;;;;;;35.45;17.05;;;4.60;99.90;;;;;;5055863;28;20045;-66
2023/01/27 00:49:22;;;;;;;28.23;14.80;;;4.60;99.90;;;;;;5060402;28;20048;-66
2023/01/27 00:51:48;;;;;;;24.45;13.90;;;4.60;99.90;;;;;;5063124;28;20387;-66
2023/01/27 00:54:14;;;;;;;27.60;14.77;;;4.60;99.90;;;;;;5063161;28;20048;-66
2023/01/27 00:56:40;;;;;;;25.90;13.38;;;4.60;99.90;;;;;;5066686;28;20639;-66
2023/01/27 00:59:06;;;;;;;23.45;11.43;;;4.60;99.90;;;;;;5056460;28;20410;-66
2023/01/27 01:01:32;;;;;;;24.42;13.10;;;4.60;99.90;;;;;;5062267;28;20612;-65
2023/01/27 01:03:59;;;;;;;30.05;14.25;;;4.50;99.90;;;;;;5062956;28;20430;-66
2023/01/27 01:06:26;;;;;;;25.67;13.88;;;4.50;99.90;;;;;;5063706;28;20044;-65
2023/01/27 01:08:51;;;;;;;26.67;13.10;;;4.50;99.90;;;;;;5059179;28;20475;-65
2023/01/27 01:11:19;;;;;;;25.85;13.23;;;4.50;99.90;;;;;;5051678;28;20122;-66
2023/01/27 01:13:46;;;;;;;26.27;12.77;;;4.50;99.90;;;;;;5054230;28;20040;-66
2023/01/27 01:16:22;;;;;;;23.50;13.15;;;4.50;99.90;;;;;;5069192;28;20041;-65
2023/01/27 01:18:48;;;;;;;25.10;12.98;;;4.50;99.90;;;;;;5051024;28;20041;-66
2023/01/27 01:21:15;;;;;;;25.98;12.85;;;4.50;99.90;;;;;;5057278;28;20048;-66
2023/01/27 01:23:42;;;;;;;25.67;11.77;;;4.50;99.90;;;;;;5063479;28;20453;-66
2023/01/27 01:26:10;;;;;;;20.77;11.27;;;4.50;99.90;;;;;;5062242;28;20469;-66
2023/01/27 01:28:36;;;;;;;23.48;12.38;;;4.50;99.90;;;;;;5075108;28;20086;-66
2023/01/27 01:31:07;;;;;;;22.55;12.13;;;4.60;99.90;;;;;;5056638;28;20041;-65
2023/01/27 01:33:32;;;;;;;22.80;11.73;;;4.60;99.90;;;;;;5062966;28;20040;-65
2023/01/27 01:36:14;;;;;;;19.63;10.48;;;4.50;99.90;;;;;;5069340;28;20041;-66
2023/01/27 01:38:40;;;;;;;21.85;9.88;;;4.50;99.90;;;;;;5063880;28;20055;-66
2023/01/27 01:41:16;;;;;;;21.83;10.82;;;4.50;99.90;;;;;;5056265;28;20033;-66
2023/01/27 01:43:42;;;;;;;18.20;10.38;;;4.50;99.90;;;;;;5054536;28;20040;-66
2023/01/27 01:46:10;;;;;;;19.77;10.05;;;4.50;99.90;;;;;;5054809;28;20048;-66
2023/01/27 01:48:45;;;;;;;18.30;8.70;;;4.50;99.90;;;;;;5055377;28;20355;-66
2023/01/27 01:51:20;;;;;;;16.70;9.48;;;4.50;99.90;;;;;;5057060;28;20045;-65
2023/01/27 01:53:54;;;;;;;13.85;7.75;;;4.60;99.90;;;;;;5053298;28;20082;-66
2023/01/27 01:56:25;;;;;;;16.05;8.30;;;4.50;99.90;;;;;;5053118;28;20652;-66
2023/01/27 01:58:53;;;;;;;16.80;8.70;;;4.50;99.90;;;;;;5064722;28;20032;-66
2023/01/27 02:01:18;;;;;;;14.35;8.50;;;4.60;99.90;;;;;;5061464;28;20162;-66
2023/01/27 02:03:49;;;;;;;15.55;7.45;;;4.50;99.90;;;;;;5053037;28;20554;-66
2023/01/27 02:06:15;;;;;;;13.23;7.50;;;4.60;99.90;;;;;;5061769;28;20051;-66
2023/01/27 02:08:45;;;;;;;12.45;7.13;;;4.60;99.90;;;;;;5065853;28;20098;-66
2023/01/27 02:11:10;;;;;;;10.68;6.28;;;4.60;99.90;;;;;;5058141;28;20040;-66
2023/01/27 02:13:37;;;;;;;13.27;5.68;;;4.60;99.90;;;;;;5057598;28;20051;-66
2023/01/27 02:16:04;;;;;;;14.73;6.75;;;4.60;99.90;;;;;;5059245;28;20055;-65
2023/01/27 02:18:30;;;;;;;12.38;6.07;;;4.60;99.90;;;;;;5115935;22;20036;-66
2023/01/27 02:20:56;;;;;;;10.82;5.10;;;4.60;99.90;;;;;;5081460;28;20045;-66
2023/01/27 02:23:58;;;;;;;9.65;5.28;;;4.70;99.90;;;;;;5079194;28;20115;-66
2023/01/27 02:26:34;;;;;;;9.60;5.40;;;4.60;99.90;;;;;;5082093;28;20045;-66
2023/01/27 02:29:08;;;;;;;11.60;5.63;;;4.70;99.90;;;;;;5056756;28;20398;-66
2023/01/27 02:31:34;;;;;;;8.88;5.20;;;4.70;99.90;;;;;;5054689;28;20033;-66
2023/01/27 02:34:05;;;;;;;7.88;4.25;;;4.70;99.90;;;;;;5058917;28;20406;-66
2023/01/27 02:36:35;;;;;;;8.45;4.45;;;4.70;99.90;;;;;;5067603;28;20129;-66
2023/01/27 02:39:02;;;;;;;8.23;4.60;;;4.70;99.90;;;;;;5054978;28;20048;-66
2023/01/27 02:41:35;;;;;;;5.20;2.75;;;4.70;99.90;;;;;;5054507;28;20044;-66
2023/01/27 02:44:01;;;;;;;6.28;3.55;;;4.70;99.90;;;;;;5066975;28;20072;-66
2023/01/27 02:46:27;;;;;;;9.13;5.03;;;4.70;99.90;;;;;;5057583;28;20077;-66
2023/01/27 02:48:53;;;;;;;6.00;2.92;;;4.70;99.90;;;;;;5059877;28;20495;-66
2023/01/27 02:51:18;;;;;;;6.15;3.53;;;4.70;99.90;;;;;;5069462;28;20044;-66
2023/01/27 02:53:45;;;;;;;10.10;4.55;;;4.70;99.90;;;;;;5061788;28;20029;-65
2023/01/27 02:56:11;;;;;;;8.18;4.65;;;4.70;99.90;;;;;;5060561;28;20124;-65
2023/01/27 02:58:36;;;;;;;6.72;3.65;;;4.80;99.90;;;;;;5053015;28;20115;-65
2023/01/27 03:01:02;;;;;;;8.25;4.30;;;4.80;99.90;;;;;;5051694;28;20116;-65
2023/01/27 03:03:28;;;;;;;8.95;4.32;;;4.80;99.90;;;;;;5061887;28;20153;-65
2023/01/27 03:05:53;;;;;;;8.23;4.85;;;4.80;99.90;;;;;;5066133;28;20048;-65
2023/01/27 03:08:19;;;;;;;8.85;4.82;;;4.80;99.90;;;;;;5061979;28;20036;-65
2023/01/27 03:10:50;;;;;;;9.10;4.50;;;4.80;99.90;;;;;;5063870;28;20048;-65
2023/01/27 03:13:15;;;;;;;11.55;4.82;;;4.70;99.90;;;;;;5065407;28;20123;-65
2023/01/27 03:18:25;;;;;;;6.60;3.95;;;4.70;99.90;;;;;;5067954;28;20048;-65
2023/01/27 03:20:51;;;;;;;6.47;3.65;;;4.70;99.90;;;;;;5060015;28;20045;-65
2023/01/27 03:23:18;;;;;;;7.25;3.20;;;4.80;99.90;;;;;;5064024;28;20120;-65
2023/01/27 03:25:46;;;;;;;7.93;3.90;;;4.70;99.90;;;;;;5053019;28;20045;-65
2023/01/27 03:28:13;;;;;;;7.95;4.03;;;4.80;99.90;;;;;;5055538;28;20046;-65
2023/01/27 03:30:39;;;;;;;6.10;3.58;;;4.80;99.90;;;;;;5055984;28;20413;-65
2023/01/27 03:33:06;;;;;;;5.30;2.90;;;4.80;99.90;;;;;;5060431;28;20086;-65
2023/01/27 03:35:37;;;;;;;8.63;3.78;;;4.80;99.90;;;;;;5058952;28;20052;-65
2023/01/27 03:46:19;;;;;;;6.85;3.97;;;4.80;99.90;;;;;;5059232;28;20114;-65
2023/01/27 03:48:51;;;;;;;6.72;3.85;;;4.80;99.90;;;;;;5052106;28;20037;-65
2023/01/27 03:51:18;;;;;;;8.20;4.57;;;4.80;99.90;;;;;;5060487;28;20065;-65
2023/01/27 03:53:43;;;;;;;5.63;3.42;;;4.80;99.90;;;;;;5060874;28;20406;-65
2023/01/27 03:56:10;;;;;;;7.22;3.80;;;4.80;99.90;;;;;;5054202;28;20054;-65
2023/01/27 03:58:36;;;;;;;5.55;3.63;;;4.70;99.90;;;;;;5059484;28;20131;-65
2023/01/27 04:01:15;;;;;;;6.55;3.53;;;4.70;99.90;;;;;;5055260;28;20068;-65
2023/01/27 04:06:51;;;;;;;9.50;3.70;;;4.70;99.90;;;;;;5051942;28;20060;-65
2023/01/27 04:09:45;;;;;;;6.45;3.47;;;4.80;99.90;;;;;;5049579;28;20041;-65
2023/01/27 04:12:11;;;;;;;6.57;3.58;;;4.80;99.90;;;;;;5034859;28;20052;-65
2023/01/27 04:14:42;;;;;;;5.10;2.97;;;4.80;99.90;;;;;;5071493;28;20040;-65
2023/01/27 04:17:13;;;;;;;5.28;3.50;;;4.80;99.90;;;;;;5057074;28;20548;-65
2023/01/27 04:19:39;;;;;;;6.65;3.63;;;4.80;99.90;;;;;;5053432;28;20120;-65
2023/01/27 04:22:05;;;;;;;6.35;3.83;;;4.80;99.90;;;;;;5060930;28;20108;-65
2023/01/27 04:24:31;;;;;;;6.18;3.63;;;4.80;99.90;;;;;;5058933;28;20452;-65
2023/01/27 04:27:06;;;;;;;5.63;3.40;;;4.80;99.90;;;;;;5058402;28;20478;-65
2023/01/27 04:29:34;;;;;;;6.55;3.15;;;4.80;99.90;;;;;;5052211;28;20044;-65
2023/01/27 04:32:02;;;;;;;4.95;3.35;;;4.80;99.90;;;;;;5059816;28;20111;-65
2023/01/27 04:34:27;;;;;;;5.93;3.80;;;4.70;99.90;;;;;;5055931;28;20040;-65
2023/01/27 04:36:54;;;;;;;2.83;2.05;;;4.70;99.90;;;;;;5051366;28;20094;-65
2023/01/27 04:39:20;;;;;;;5.03;3.03;;;4.70;99.90;;;;;;5049682;28;20132;-65
2023/01/27 04:41:47;;;;;;;6.78;3.85;;;4.70;99.90;;;;;;5057531;28;20055;-66
2023/01/27 04:44:13;;;;;;;5.20;3.47;;;4.70;99.90;;;;;;5066652;28;20048;-65
2023/01/27 04:46:39;;;;;;;5.05;3.50;;;4.70;99.90;;;;;;5051002;28;20461;-65
2023/01/27 04:49:05;;;;;;;5.57;3.45;;;4.70;99.90;;;;;;5065589;28;20071;-65
2023/01/27 04:51:31;;;;;;;5.03;3.10;;;4.70;99.90;;;;;;5057940;28;20430;-65
2023/01/27 04:53:56;;;;;;;4.40;2.42;;;4.70;99.90;;;;;;5057672;28;20044;-65
2023/01/27 04:56:23;;;;;;;4.43;2.30;;;4.70;99.90;;;;;;5051004;28;20032;-65
2023/01/27 04:58:49;;;;;;;6.53;3.70;;;4.70;99.90;;;;;;5062301;28;20039;-65
2023/01/27 05:01:15;;;;;;;6.15;3.63;;;4.70;99.90;;;;;;5061813;28;20115;-65
2023/01/27 05:03:40;;;;;;;6.05;3.78;;;4.60;99.90;;;;;;5051124;28;20041;-65
2023/01/27 05:06:07;;;;;;;4.32;2.65;;;4.60;99.90;;;;;;5049476;28;20036;-65
2023/01/27 05:08:33;;;;;;;7.25;3.80;;;4.60;99.90;;;;;;5056798;28;20037;-65
2023/01/27 05:10:58;;;;;;;4.68;2.65;;;4.60;99.90;;;;;;5050760;28;20106;-65
2023/01/27 05:13:24;;;;;;;4.65;2.40;;;4.60;99.90;;;;;;5059162;28;20037;-65
2023/01/27 05:15:49;;;;;;;5.40;3.15;;;4.50;99.90;;;;;;5063953;28;20453;-65
2023/01/27 05:18:15;;;;;;;5.45;3.45;;;4.60;99.90;;;;;;5055465;28;20044;-65
2023/01/27 05:20:40;;;;;;;5.47;3.28;;;4.50;99.90;;;;;;5054155;28;20036;-65
2023/01/27 05:25:50;;;;;;;4.82;3.15;;;4.50;99.90;;;;;;5058151;28;20048;-65
2023/01/27 05:28:16;;;;;;;3.95;2.72;;;4.50;99.90;;;;;;5049377;28;20037;-65
2023/01/27 05:30:41;;;;;;;5.75;2.65;;;4.50;99.90;;;;;;5049195;28;20025;-65
2023/01/27 05:33:07;;;;;;;5.60;3.55;;;4.50;99.90;;;;;;5056466;28;20434;-65
2023/01/27 05:35:33;;;;;;;4.28;2.40;;;4.50;99.90;;;;;;5074766;28;20052;-65
2023/01/27 05:37:59;;;;;;;5.30;2.83;;;4.50;99.90;;;;;;5051745;28;20044;-65
2023/01/27 05:40:25;;;;;;;4.32;2.50;;;4.50;99.90;;;;;;5050371;28;20045;-65
2023/01/27 05:42:52;;;;;;;4.20;2.60;;;4.50;99.90;;;;;;5059594;28;20108;-65
2023/01/27 05:45:17;;;;;;;3.85;2.30;;;4.50;99.90;;;;;;5062479;28;20041;-65
2023/01/27 05:47:47;;;;;;;3.95;2.63;;;4.50;99.90;;;;;;5050713;28;20040;-65
2023/01/27 05:50:12;;;;;;;4.25;2.60;;;4.50;99.90;;;;;;5056910;28;20106;-65
2023/01/27 05:52:38;;;;;;;3.75;2.53;;;4.50;99.90;;;;;;5060912;28;20036;-65
2023/01/27 05:55:04;;;;;;;5.05;2.55;;;4.50;99.90;;;;;;5071150;28;20039;-64
2023/01/27 05:57:29;;;;;;;4.50;2.67;;;4.50;99.90;;;;;;5057010;28;20052;-64
2023/01/27 05:59:55;;;;;;;5.80;2.85;;;4.50;99.90;;;;;;5053905;28;20410;-65
2023/01/27 06:02:20;;;;;;;3.03;1.92;;;4.40;99.90;;;;;;5050346;28;20064;-65
2023/01/27 06:04:46;;;;;;;2.97;2.10;;;4.40;99.90;;;;;;5055122;28;21013;-64
2023/01/27 06:07:12;;;;;;;3.85;2.25;;;4.40;99.90;;;;;;5063374;28;20044;-65
2023/01/27 06:09:37;;;;;;;3.85;2.47;;;4.40;99.90;;;;;;5054172;28;20039;-65
2023/01/27 06:12:03;;;;;;;6.13;3.08;;;4.40;99.90;;;;;;5054398;28;20037;-65
2023/01/27 06:14:29;;;;;;;2.20;1.77;;;4.40;99.90;;;;;;5054685;28;20133;-65
2023/01/27 06:16:54;;;;;;;4.13;2.55;;;4.40;99.90;;;;;;5073557;28;20071;-65
2023/01/27 06:19:20;;;;;;;4.18;2.42;;;4.40;99.90;;;;;;5064792;28;20049;-65
2023/01/27 06:21:45;;;;;;;5.13;2.78;;;4.40;99.90;;;;;;5062877;28;20040;-65
2023/01/27 06:24:11;;;;;;;5.80;2.60;;;4.40;99.90;;;;;;5058136;28;20052;-65
2023/01/27 06:26:37;;;;;;;7.18;3.22;;;4.40;99.90;;;;;;5051448;28;20036;-65
2023/01/27 06:29:02;;;;;;;5.50;2.85;;;4.40;99.90;;;;;;5051255;28;20082;-65
2023/01/27 06:31:28;;;;;;;4.70;2.85;;;4.40;99.90;;;;;;5047905;28;20037;-65
2023/01/27 06:33:53;;;;;;;8.43;3.13;;;4.30;99.90;;;;;;5058178;28;20521;-64
2023/01/27 06:36:21;;;;;;;5.72;2.75;;;4.30;99.90;;;;;;5058387;28;20045;-64
2023/01/27 06:38:48;;;;;;;4.68;2.95;;;4.30;99.90;;;;;;5061357;28;20036;-64
2023/01/27 06:41:13;;;;;;;6.50;3.17;;;4.30;99.90;;;;;;5072761;28;20036;-64
2023/01/27 06:43:39;;;;;;;5.40;2.85;;;4.20;99.90;;;;;;5053240;28;20511;-64
2023/01/27 06:46:05;;;;;;;5.20;3.28;;;4.20;99.90;;;;;;5056159;28;20135;-65
2023/01/27 06:48:31;;;;;;;6.45;3.50;;;4.20;99.90;;;;;;5065758;28;20029;-65
2023/01/27 06:50:57;;;;;;;2.63;1.95;;;4.20;99.90;;;;;;5058913;28;20511;-64
2023/01/27 06:53:23;;;;;;;7.82;3.40;;;4.20;99.90;;;;;;5073527;28;20041;-65
2023/01/27 06:55:55;;;;;;;7.18;3.03;;;4.20;99.90;;;;;;5065199;28;20044;-65
2023/01/27 06:58:20;;;;;;;7.90;3.35;;;4.20;99.90;;;;;;5055002;28;20069;-69
2023/01/27 07:00:46;;;;;;;6.30;3.30;;;4.20;99.90;;;;;;5053277;28;20100;-64
2023/01/27 07:03:12;;;;;;;7.05;3.63;;;4.10;99.90;;;;;;5047292;28;20041;-64
2023/01/27 07:05:40;;;;;;;7.32;3.58;;;4.10;99.90;;;;;;5064876;28;20077;-62
2023/01/27 07:08:05;;;;;;;5.50;3.50;;;4.00;99.90;;;;;;5052082;28;20396;-64
2023/01/27 07:10:31;;;;;;;8.60;3.88;;;4.00;99.90;;;;;;5056389;28;20044;-65
2023/01/27 07:13:07;;;;;;;5.80;3.47;;;4.10;99.90;;;;;;5063441;28;20028;-65
2023/01/27 07:15:34;;;;;;;6.13;2.92;;;4.00;99.90;;;;;;5051693;28;20407;-65
2023/01/27 07:18:00;;;;;;;5.30;2.42;;;4.10;99.90;;;;;;5053829;28;20487;-64
2023/01/27 07:20:27;;;;;;;4.97;2.83;;;4.10;99.90;;;;;;5061966;28;20033;-65
2023/01/27 07:22:58;;;;;;;5.88;3.00;;;4.00;99.90;;;;;;5059294;28;20108;-64
2023/01/27 07:25:24;;;;;;;;;;;4.00;99.90;;;;;;5052746;28;20055;-64
2023/01/27 07:27:50;;;;;;;10.02;4.00;;;4.00;99.90;;;;;;5049978;28;19921;-64
2023/01/27 07:30:16;;;;;;;5.50;3.72;;;4.00;99.90;;;;;;5055422;28;20421;-65
2023/01/27 07:32:41;;;;;;;6.38;3.88;;;4.00;99.90;;;;;;5070240;28;20518;-65
2023/01/27 07:35:07;;;;;;;7.20;4.05;;;3.90;99.90;;;;;;5064434;28;20036;-65
2023/01/27 07:37:33;;;;;;;6.88;3.67;;;3.80;99.90;;;;;;5066993;28;20051;-67
2023/01/27 07:39:58;;;;;;;6.75;3.90;;;3.80;99.90;;;;;;5055982;28;20774;-67
2023/01/27 07:42:24;;;;;;;7.82;4.38;;;3.70;99.90;;;;;;5060595;28;20048;-64
2023/01/27 07:44:49;;;;;;;7.93;4.32;;;3.70;99.90;;;;;;5060583;28;21048;-64
2023/01/27 07:47:15;;;;;;;9.38;4.30;;;3.80;99.90;;;;;;5061237;28;20048;-64
2023/01/27 07:49:41;;;;;;;10.50;5.78;;;3.80;99.90;;;;;;5060116;28;20032;-65
2023/01/27 07:52:06;;;;;;;9.48;4.32;;;3.80;99.90;;;;;;5052169;28;20037;-65
2023/01/27 07:54:32;;;;;;;9.10;4.40;;;3.90;99.90;;;;;;5053823;28;20071;-65
2023/01/27 07:57:01;;;;;;;9.77;4.72;;;3.90;99.90;;;;;;5051984;28;20485;-64
2023/01/27 07:59:27;;;;;;;9.50;5.05;;;3.90;99.90;;;;;;5052256;28;20043;-65
2023/01/27 08:01:52;;;;;;;8.90;5.30;;;3.90;99.90;;;;;;5052335;28;20420;-65
2023/01/27 08:04:18;;;;;;;10.35;5.00;;;4.00;99.90;;;;;;5068034;28;20558;-65
2023/01/27 08:06:44;;;;;;;8.38;4.80;;;4.00;99.90;;;;;;5066271;28;20037;-64
2023/01/27 08:09:10;;;;;;;8.15;4.50;;;3.90;99.90;;;;;;5059812;28;20033;-65
2023/01/27 08:11:35;;;;;;;8.65;5.00;;;4.00;99.90;;;;;;5066195;28;20449;-64
2023/01/27 08:14:01;;;;;;;9.18;4.75;;;4.00;99.90;;;;;;5064463;28;20040;-64
2023/01/27 08:16:27;;;;;;;9.35;5.47;;;4.10;99.90;;;;;;5051577;28;20556;-65
2023/01/27 08:18:53;;;;;;;9.20;4.80;;;4.20;99.90;;;;;;5057713;28;20066;-65
2023/01/27 08:21:19;;;;;;;12.63;5.45;;;4.20;99.90;;;;;;5053375;28;20471;-65
2023/01/27 08:23:45;;;;;;;11.82;6.05;;;4.30;99.90;;;;;;5051280;28;20490;-64
2023/01/27 08:26:11;;;;;;;12.13;5.22;;;4.30;99.90;;;;;;5069184;28;20032;-64
2023/01/27 08:28:38;;;;;;;9.40;4.82;;;4.40;99.90;;;;;;5055374;28;20505;-64
2023/01/27 08:31:10;;;;;;;11.20;5.30;;;4.40;99.90;;;;;;5071191;28;20748;-65
2023/01/27 08:33:36;;;;;;;9.00;4.97;;;4.40;99.90;;;;;;5070603;28;20032;-65
2023/01/27 08:36:05;;;;;;;10.57;5.10;;;4.40;99.90;;;;;;5066311;28;20037;-65
2023/01/27 08:38:33;;;;;;;10.95;6.00;;;4.40;99.90;;;;;;5057577;28;20437;-65
2023/01/27 08:41:05;;;;;;;10.13;5.63;;;4.40;99.90;;;;;;5051455;28;20045;-65
2023/01/27 08:43:31;;;;;;;10.82;5.82;;;4.40;99.90;;;;;;5053629;28;20045;-64
2023/01/27 08:45:59;;;;;;;8.93;5.60;;;4.40;99.90;;;;;;5035518;28;20040;-63
2023/01/27 08:48:25;;;;;;;11.05;5.40;;;4.50;99.90;;;;;;5049929;28;20452;-65
2023/01/27 08:50:51;;;;;;;10.00;5.57;;;4.50;99.90;;;;;;5054830;28;20369;-64
2023/01/27 08:53:17;;;;;;;9.70;5.43;;;4.60;99.90;;;;;;5058645;28;20044;-64
2023/01/27 08:55:42;;;;;;;11.07;5.28;;;4.70;99.90;;;;;;5059275;28;20032;-64
2023/01/27 08:58:08;;;;;;;11.82;5.82;;;4.80;99.90;;;;;;5061729;28;20127;-65
2023/01/27 09:00:33;;;;;;;9.52;5.45;;;4.70;99.90;;;;;;5028684;28;20041;-65
2023/01/27 09:03:00;;;;;;;10.27;6.10;;;4.70;99.90;;;;;;5041603;28;20124;-64
2023/01/27 09:05:26;;;;;;;10.63;5.07;;;4.70;99.90;;;;;;5034467;28;20059;-64
2023/01/27 09:07:51;;;;;;;12.50;6.10;;;4.80;99.90;;;;;;5048219;28;20037;-64
2023/01/27 09:10:17;;;;;;;9.48;5.05;;;4.80;99.90;;;;;;5042458;28;20033;-64
2023/01/27 09:12:44;;;;;;;9.55;5.70;;;4.80;99.90;;;;;;5057814;28;20055;-64
2023/01/27 09:15:11;;;;;;;10.02;5.80;;;4.80;99.90;;;;;;5055165;28;20071;-64
2023/01/27 09:17:36;;;;;;;9.48;5.50;;;4.80;99.90;;;;;;5059368;28;20463;-64
2023/01/27 09:20:02;;;;;;;9.48;5.20;;;4.90;99.90;;;;;;5052555;28;20070;-64
2023/01/27 09:22:28;;;;;;;10.48;5.10;;;4.90;99.90;;;;;;5057638;28;20072;-64
2023/01/27 09:24:53;;;;;;;8.23;4.82;;;4.90;99.90;;;;;;5057939;28;20146;-64
2023/01/27 09:27:19;;;;;;;9.27;4.97;;;4.90;99.90;;;;;;5056675;28;20045;-64
2023/01/27 09:29:45;;;;;;;9.02;5.10;;;4.90;99.90;;;;;;5050697;28;20025;-64
2023/01/27 09:32:11;;;;;;;8.48;5.07;;;5.00;99.90;;;;;;5057529;28;20036;-64
2023/01/27 09:34:37;;;;;;;9.38;4.85;;;5.00;99.90;;;;;;5061156;28;20036;-64
2023/01/27 09:37:09;;;;;;;8.55;4.55;;;5.00;99.90;;;;;;5041502;28;20040;-64
2023/01/27 09:39:36;;;;;;;;;;;5.10;99.90;;;;;;5038625;28;20396;-64
2023/01/27 09:42:11;;;;;;;6.63;4.50;;;5.00;99.90;;;;;;5048119;28;19923;-65
2023/01/27 09:45:11;;;;;;;10.05;4.25;;;5.00;99.90;;;;;;5044026;28;20041;-64
2023/01/27 09:47:46;;;;;;;7.50;4.40;;;4.90;99.90;;;;;;5044943;28;20044;-64
2023/01/27 09:50:44;;;;;;;11.57;4.95;;;4.90;99.90;;;;;;5043875;28;20102;-65
2023/01/27 09:53:50;;;;;;;7.97;4.50;;;4.90;99.90;;;;;;5045938;28;20040;-64
2023/01/27 09:56:31;;;;;;;7.25;4.50;;;4.90;99.90;;;;;;5057012;28;20037;-64
2023/01/27 09:59:15;;;;;;;8.23;4.55;;;4.90;99.90;;;;;;5051263;28;20399;-64
2023/01/27 10:01:50;;;;;;;8.48;4.85;;;4.80;99.90;;;;;;5057263;28;20528;-64
2023/01/27 10:04:25;;;;;;;9.55;4.82;;;4.80;99.90;;;;;;5061348;28;20060;-64
2023/01/27 10:07:14;;;;;;;7.68;4.35;;;4.80;99.90;;;;;;5055242;28;20040;-64
2023/01/27 10:09:54;;;;;;;8.30;4.82;;;4.80;99.90;;;;;;5051989;28;20443;-64
2023/01/27 10:12:37;;;;;;;14.63;4.88;;;4.80;99.90;;;;;;5063155;28;20052;-65
2023/01/27 10:15:11;;;;;;;7.90;4.93;;;4.80;99.90;;;;;;5054570;28;20047;-65
2023/01/27 10:18:01;;;;;;;8.65;4.88;;;4.80;99.90;;;;;;5061053;28;20491;-65
2023/01/27 10:20:36;;;;;;;7.80;4.45;;;4.80;99.90;;;;;;5061350;28;20041;-65
2023/01/27 10:23:10;;;;;;;7.40;4.57;;;4.80;99.90;;;;;;5054203;28;20036;-65
2023/01/27 10:25:41;;;;;;;8.98;4.70;;;4.80;99.90;;;;;;5052630;28;20045;-64
2023/01/27 10:28:13;;;;;;;8.27;5.00;;;4.80;99.90;;;;;;5065042;28;20036;-65
2023/01/27 10:30:50;;;;;;;8.60;5.10;;;4.70;99.90;;;;;;5056617;28;20334;-65
2023/01/27 10:33:18;;;;;;;8.13;4.43;;;4.80;99.90;;;;;;5058126;28;20060;-66
2023/01/27 10:35:58;;;;;;;7.95;4.65;;;4.70;99.90;;;;;;5056195;28;20108;-65
2023/01/27 10:38:25;;;;;;;6.80;4.00;;;4.80;99.90;;;;;;5042367;28;20047;-65
2023/01/27 10:41:08;;;;;;;6.78;4.10;;;4.80;99.90;;;;;;5030182;28;20535;-66
2023/01/27 10:44:11;;;;;;;6.97;4.18;;;4.80;99.90;;;;;;5048756;28;20037;-66
2023/01/27 10:47:26;;;;;;;9.07;4.10;;;4.80;99.90;;;;;;5035484;28;20037;-65
2023/01/27 10:49:58;;;;;;;6.50;4.10;;;4.80;99.90;;;;;;4951863;28;20046;-66
2023/01/27 10:52:46;;;;;;;7.78;4.10;;;4.80;99.90;;;;;;4964851;28;20121;-65
2023/01/27 10:55:20;;;;;;;6.93;3.95;;;4.80;99.90;;;;;;5020764;28;20056;-65
2023/01/27 10:58:01;;;;;;;6.80;3.60;;;4.90;99.90;;;;;;5039762;28;23910;-65
2023/01/27 11:00:40;;;;;;;6.53;4.18;;;4.90;99.90;;;;;;5045310;28;23782;-65
2023/01/27 11:03:22;;;;;;;5.90;3.47;;;4.90;99.90;;;;;;5041043;28;20044;-63
2023/01/27 11:05:51;;;;;;;5.80;3.78;;;4.90;99.90;;;;;;5046998;28;20045;-63
2023/01/27 11:08:25;;;;;;;6.50;4.05;;;4.90;99.90;;;;;;5042273;28;20167;-66
2023/01/27 11:13:39;;;;;;;6.38;3.90;;;5.00;99.90;;;;;;5065618;28;20118;-66
2023/01/27 11:16:14;;;;;;;8.35;3.75;;;5.00;99.90;;;;;;5055142;28;20051;-65
2023/01/27 11:18:44;;;;;;;8.27;3.88;;;5.10;99.90;;;;;;5054510;28;20125;-65
2023/01/27 11:21:18;;;;;;;6.30;3.47;;;5.10;99.90;;;;;;5046128;28;20751;-66
2023/01/27 11:23:52;;;;;;;7.18;3.90;;;5.10;99.90;;;;;;5031120;28;20135;-66
2023/01/27 11:26:29;;;;;;;6.15;3.78;;;5.20;99.90;;;;;;5030631;28;20051;-66
2023/01/27 11:29:19;;;;;;;6.25;4.00;;;5.20;99.90;;;;;;5039411;28;20090;-65
2023/01/27 11:32:16;;;;;;;8.57;4.30;;;5.30;99.90;;;;;;5032903;28;20518;-66
2023/01/27 11:35:12;;;;;;;5.90;3.90;;;5.30;99.90;;;;;;5032434;28;20074;-66
2023/01/27 11:37:45;;;;;;;6.22;3.70;;;5.30;99.90;;;;;;5031390;28;20080;-66
2023/01/27 11:40:33;;;;;;;5.97;3.72;;;5.30;99.90;;;;;;5051635;28;20161;-65
2023/01/27 11:42:59;;;;;;;7.15;4.18;;;5.40;99.90;;;;;;5035950;28;20044;-66
2023/01/27 11:45:29;;;;;;;7.10;3.60;;;5.40;99.90;;;;;;5044889;28;20041;-66
2023/01/27 11:47:59;;;;;;;6.18;3.85;;;5.40;99.90;;;;;;5056595;28;20520;-66
2023/01/27 11:50:28;;;;;;;6.15;3.53;;;5.50;99.90;;;;;;5045503;28;20037;-66
2023/01/27 11:53:19;;;;;;;7.32;3.90;;;5.50;99.90;;;;;;5052364;28;20058;-66
2023/01/27 11:56:02;;;;;;;6.40;3.95;;;5.50;99.90;;;;;;5038485;28;20434;-66
2023/01/27 11:58:38;;;;;;;5.20;3.35;;;5.50;99.90;;;;;;5027033;28;20024;-66
2023/01/27 12:01:12;;;;;;;4.80;2.95;;;5.50;99.90;;;;;;5026796;28;20041;-66
2023/01/27 12:04:00;;;;;;;6.22;3.90;;;5.50;99.90;;;;;;5033285;28;20044;-64
2023/01/27 12:06:42;;;;;;;4.75;3.22;;;5.40;99.90;;;;;;5066322;28;20053;-66
2023/01/27 12:09:32;;;;;;;7.65;3.60;;;5.40;99.90;;;;;;5060075;28;20037;-66
2023/01/27 12:12:13;;;;;;;4.47;3.17;;;5.50;99.90;;;;;;5048864;28;20036;-66
2023/01/27 12:14:46;;;;;;;5.20;3.10;;;5.50;99.90;;;;;;5048983;28;20037;-66
2023/01/27 12:17:21;;;;;;;6.13;3.15;;;5.40;99.90;;;;;;5066236;28;20162;-66
2023/01/27 12:19:47;;;;;;;3.85;2.33;;;5.40;99.90;;;;;;5051050;28;20039;-66
2023/01/27 12:22:26;;;;;;;7.05;3.08;;;5.40;99.90;;;;;;5057971;28;20048;-66
2023/01/27 12:24:57;;;;;;;9.15;3.47;;;5.40;99.90;;;;;;5046039;28;20090;-66
2023/01/27 12:27:26;;;;;;;5.38;3.38;;;5.30;99.90;;;;;;5053169;28;20565;-66
2023/01/27 12:30:03;;;;;;;5.28;3.70;;;5.30;99.90;;;;;;5050007;28;20036;-67
2023/01/27 12:32:41;;;;;;;5.25;3.40;;;5.30;99.90;;;;;;5059619;28;20380;-65
2023/01/27 12:35:19;;;;;;;5.18;3.40;;;5.30;99.90;;;;;;5061775;28;20040;-65
2023/01/27 12:37:47;;;;;;;6.07;3.42;;;5.30;99.90;;;;;;5050658;28;20049;-66
2023/01/27 12:40:27;;;;;;;5.53;3.45;;;5.30;99.90;;;;;;5061698;28;20044;-65
2023/01/27 12:43:01;;;;;;;5.38;3.55;;;5.30;99.90;;;;;;5060901;28;20040;-65
2023/01/27 12:45:37;;;;;;;4.45;3.05;;;5.30;99.90;;;;;;5049717;28;20403;-66
2023/01/27 12:48:11;;;;;;;5.95;3.63;;;5.30;99.90;;;;;;5059088;28;20119;-66
2023/01/27 12:50:51;;;;;;;4.10;3.10;;;5.30;99.90;;;;;;5063636;28;20043;-65
2023/01/27 12:53:19;;;;;;;5.00;3.20;;;5.20;99.90;;;;;;5070775;28;20408;-66
2023/01/27 12:55:45;;;;;;;4.60;2.95;;;5.20;99.90;;;;;;5066155;28;20115;-66
2023/01/27 12:58:36;;;;;;;5.10;3.30;;;5.30;99.90;;;;;;5057588;28;20462;-65
2023/01/27 13:01:20;;;;;;;4.72;2.97;;;5.20;99.90;;;;;;5056899;28;20488;-65
2023/01/27 13:03:50;;;;;;;3.95;2.83;;;5.30;99.90;;;;;;5048893;28;20025;-65
2023/01/27 13:06:19;;;;;;;4.40;2.80;;;5.30;99.90;;;;;;5057727;28;20487;-65
2023/01/27 13:08:48;;;;;;;5.40;3.00;;;5.30;99.90;;;;;;5051142;28;20036;-66
2023/01/27 13:11:17;;;;;;;4.90;3.03;;;5.30;99.90;;;;;;5049112;28;20087;-66
2023/01/27 13:13:50;;;;;;;4.68;3.08;;;5.20;99.90;;;;;;5060650;28;20051;-66
2023/01/27 13:16:36;;;;;;;4.15;2.65;;;5.20;99.90;;;;;;5066374;28;20037;-66
2023/01/27 13:19:14;;;;;;;4.28;2.90;;;5.20;99.90;;;;;;5075201;28;20045;-69
2023/01/27 13:21:40;;;;;;;4.90;3.20;;;5.20;99.90;;;;;;5057161;28;20071;-66
2023/01/27 13:24:13;;;;;;;4.07;3.08;;;5.20;99.90;;;;;;5065390;28;20470;-66
2023/01/27 13:26:40;;;;;;;5.40;2.95;;;5.20;99.90;;;;;;5058585;28;20051;-66
2023/01/27 13:29:15;;;;;;;4.38;3.03;;;5.20;99.90;;;;;;5062970;28;20044;-67
2023/01/27 13:32:02;;;;;;;3.95;2.90;;;5.20;99.90;;;;;;5056262;28;20469;-65
2023/01/27 13:34:39;;;;;;;4.10;3.00;;;5.20;99.90;;;;;;5056439;28;20041;-66
2023/01/27 13:37:23;;;;;;;5.75;2.97;;;5.20;99.90;;;;;;5054813;28;20037;-66